sensor_id;sensor_type;location;lat;lon;timestamp;pressure;altitude;pressure_sealevel;temperature;humidity
32330;BME280;18807;52.434;13.238;2023-02-10T00:04:12;102822.78;;;0.60;90.88
32330;BME280;18807;52.434;13.238;2023-02-10T00:11:48;102819.78;;;0.65;91.25
32330;BME280;18807;52.434;13.238;2023-02-10T00:19:32;102816.91;;;0.72;91.60
32330;BME280;18807;52.434;13.238;2023-02-10T00:27:08;102817.28;;;0.77;92.50
32330;BME280;18807;52.434;13.238;2023-02-10T00:34:42;102816.09;;;0.83;92.64
32330;BME280;18807;52.434;13.238;2023-02-10T00:42:17;102812.28;;;0.90;93.91
32330;BME280;18807;52.434;13.238;2023-02-10T00:49:51;102825.84;;;0.94;94.17
32330;BME280;18807;52.434;13.238;2023-02-10T00:57:26;102827.31;;;1.01;94.16
32330;BME280;18807;52.434;13.238;2023-02-10T01:05:00;102833.72;;;1.04;94.84
32330;BME280;18807;52.434;13.238;2023-02-10T01:12:37;102842.16;;;1.10;94.75
32330;BME280;18807;52.434;13.238;2023-02-10T01:20:11;102850.31;;;1.13;94.79
32330;BME280;18807;52.434;13.238;2023-02-10T01:27:46;102845.72;;;1.11;95.74
32330;BME280;18807;52.434;13.238;2023-02-10T01:35:20;102839.78;;;1.03;96.33
32330;BME280;18807;52.434;13.238;2023-02-10T01:42:55;102846.88;;;0.94;96.73
32330;BME280;18807;52.434;13.238;2023-02-10T01:50:32;102840.03;;;0.86;98.17
32330;BME280;18807;52.434;13.238;2023-02-10T01:58:14;102833.75;;;0.84;99.32
32330;BME280;18807;52.434;13.238;2023-02-10T02:05:48;102821.09;;;0.80;99.79
32330;BME280;18807;52.434;13.238;2023-02-10T02:13:32;102826.88;;;0.76;100.00
32330;BME280;18807;52.434;13.238;2023-02-10T02:21:37;102842.13;;;0.70;100.00
32330;BME280;18807;52.434;13.238;2023-02-10T02:29:30;102845.69;;;0.61;100.00
32330;BME280;18807;52.434;13.238;2023-02-10T02:37:11;102858.16;;;0.53;100.00
32330;BME280;18807;52.434;13.238;2023-02-10T02:44:48;102848.13;;;0.49;100.00
32330;BME280;18807;52.434;13.238;2023-02-10T02:52:33;102852.56;;;0.40;100.00
32330;BME280;18807;52.434;13.238;2023-02-10T03:00:16;102854.03;;;0.37;100.00
32330;BME280;18807;52.434;13.238;2023-02-10T03:07:53;102856.09;;;0.31;100.00
32330;BME280;18807;52.434;13.238;2023-02-10T03:15:27;102863.06;;;0.30;100.00
32330;BME280;18807;52.434;13.238;2023-02-10T03:23:04;102879.09;;;0.33;100.00
32330;BME280;18807;52.434;13.238;2023-02-10T03:30:38;102860.72;;;0.33;100.00
32330;BME280;18807;52.434;13.238;2023-02-10T03:38:16;102872.28;;;0.35;100.00
32330;BME280;18807;52.434;13.238;2023-02-10T03:45:49;102884.63;;;0.36;100.00
32330;BME280;18807;52.434;13.238;2023-02-10T03:53:25;102876.22;;;0.40;100.00
32330;BME280;18807;52.434;13.238;2023-02-10T04:00:59;102885.47;;;0.45;100.00
32330;BME280;18807;52.434;13.238;2023-02-10T04:08:35;102877.59;;;0.55;100.00
32330;BME280;18807;52.434;13.238;2023-02-10T04:16:12;102876.69;;;0.65;100.00
32330;BME280;18807;52.434;13.238;2023-02-10T04:23:47;102856.72;;;0.67;100.00
32330;BME280;18807;52.434;13.238;2023-02-10T04:31:21;102862.53;;;0.73;100.00
32330;BME280;18807;52.434;13.238;2023-02-10T04:38:56;102871.44;;;0.75;100.00
32330;BME280;18807;52.434;13.238;2023-02-10T04:46:30;102877.13;;;0.79;100.00
32330;BME280;18807;52.434;13.238;2023-02-10T04:54:05;102881.72;;;0.82;100.00
32330;BME280;18807;52.434;13.238;2023-02-10T05:01:39;102876.84;;;0.86;100.00
32330;BME280;18807;52.434;13.238;2023-02-10T05:09:14;102876.34;;;0.90;100.00
32330;BME280;18807;52.434;13.238;2023-02-10T05:16:48;102889.25;;;0.97;100.00
32330;BME280;18807;52.434;13.238;2023-02-10T05:24:23;102898.19;;;0.99;100.00
32330;BME280;18807;52.434;13.238;2023-02-10T05:31:57;102886.09;;;1.01;100.00
32330;BME280;18807;52.434;13.238;2023-02-10T05:39:33;102897.13;;;1.07;100.00
32330;BME280;18807;52.434;13.238;2023-02-10T05:47:07;102892.69;;;1.06;100.00
32330;BME280;18807;52.434;13.238;2023-02-10T05:54:42;102879.78;;;1.09;100.00
32330;BME280;18807;52.434;13.238;2023-02-10T06:02:16;102899.22;;;1.11;100.00
32330;BME280;18807;52.434;13.238;2023-02-10T06:09:52;102898.19;;;1.09;100.00
32330;BME280;18807;52.434;13.238;2023-02-10T06:17:26;102907.53;;;1.06;100.00
32330;BME280;18807;52.434;13.238;2023-02-10T06:25:01;102906.88;;;0.98;100.00
32330;BME280;18807;52.434;13.238;2023-02-10T06:32:36;102933.16;;;0.98;100.00
32330;BME280;18807;52.434;13.238;2023-02-10T06:40:12;102936.59;;;0.97;100.00
32330;BME280;18807;52.434;13.238;2023-02-10T06:47:46;102928.44;;;0.94;100.00
32330;BME280;18807;52.434;13.238;2023-02-10T06:55:21;102929.22;;;0.93;100.00
32330;BME280;18807;52.434;13.238;2023-02-10T07:02:56;102953.53;;;0.91;100.00
32330;BME280;18807;52.434;13.238;2023-02-10T07:10:31;102952.91;;;0.93;100.00
32330;BME280;18807;52.434;13.238;2023-02-10T07:18:05;102951.59;;;0.98;100.00
32330;BME280;18807;52.434;13.238;2023-02-10T07:25:40;102963.44;;;1.03;100.00
32330;BME280;18807;52.434;13.238;2023-02-10T07:33:14;102966.88;;;1.12;100.00
32330;BME280;18807;52.434;13.238;2023-02-10T07:40:49;102970.06;;;1.28;100.00
32330;BME280;18807;52.434;13.238;2023-02-10T07:48:24;102977.44;;;1.52;100.00
32330;BME280;18807;52.434;13.238;2023-02-10T07:55:59;102991.78;;;1.56;100.00
32330;BME280;18807;52.434;13.238;2023-02-10T08:03:33;102979.41;;;1.65;100.00
32330;BME280;18807;52.434;13.238;2023-02-10T08:11:09;102987.34;;;1.75;100.00
32330;BME280;18807;52.434;13.238;2023-02-10T08:18:43;103000.34;;;1.93;100.00
32330;BME280;18807;52.434;13.238;2023-02-10T08:26:18;103006.66;;;2.05;100.00
32330;BME280;18807;52.434;13.238;2023-02-10T08:33:52;103020.31;;;2.22;100.00
32330;BME280;18807;52.434;13.238;2023-02-10T08:41:27;103028.31;;;2.33;100.00
32330;BME280;18807;52.434;13.238;2023-02-10T08:49:03;103022.47;;;2.57;100.00
32330;BME280;18807;52.434;13.238;2023-02-10T08:56:38;103037.72;;;2.71;100.00
32330;BME280;18807;52.434;13.238;2023-02-10T09:04:13;103030.91;;;3.16;100.00
32330;BME280;18807;52.434;13.238;2023-02-10T09:11:49;103013.66;;;3.53;100.00
32330;BME280;18807;52.434;13.238;2023-02-10T09:19:23;103040.72;;;3.72;100.00
32330;BME280;18807;52.434;13.238;2023-02-10T09:26:59;103048.19;;;3.77;100.00
32330;BME280;18807;52.434;13.238;2023-02-10T09:34:33;103050.47;;;3.73;100.00
32330;BME280;18807;52.434;13.238;2023-02-10T09:42:14;103047.38;;;3.78;100.00
32330;BME280;18807;52.434;13.238;2023-02-10T09:50:02;103047.81;;;3.73;100.00
32330;BME280;18807;52.434;13.238;2023-02-10T09:57:39;103061.75;;;3.82;100.00
32330;BME280;18807;52.434;13.238;2023-02-10T10:05:21;103068.00;;;3.94;100.00
32330;BME280;18807;52.434;13.238;2023-02-10T10:12:58;103075.81;;;3.92;100.00
32330;BME280;18807;52.434;13.238;2023-02-10T10:20:42;103068.63;;;4.01;100.00
32330;BME280;18807;52.434;13.238;2023-02-10T10:28:30;103078.84;;;4.08;100.00
32330;BME280;18807;52.434;13.238;2023-02-10T10:36:13;103083.31;;;4.09;100.00
32330;BME280;18807;52.434;13.238;2023-02-10T10:43:50;103080.25;;;4.15;100.00
32330;BME280;18807;52.434;13.238;2023-02-10T10:51:25;103068.88;;;4.16;100.00
32330;BME280;18807;52.434;13.238;2023-02-10T10:59:03;103069.34;;;4.22;100.00
32330;BME280;18807;52.434;13.238;2023-02-10T11:06:38;103058.91;;;4.35;100.00
32330;BME280;18807;52.434;13.238;2023-02-10T11:14:16;103054.88;;;4.40;100.00
32330;BME280;18807;52.434;13.238;2023-02-10T11:21:52;103037.72;;;4.47;100.00
32330;BME280;18807;52.434;13.238;2023-02-10T11:29:32;103031.41;;;4.56;100.00
32330;BME280;18807;52.434;13.238;2023-02-10T11:37:12;103027.03;;;4.68;100.00
32330;BME280;18807;52.434;13.238;2023-02-10T11:44:55;103017.03;;;4.76;100.00
32330;BME280;18807;52.434;13.238;2023-02-10T11:52:29;103023.13;;;4.86;100.00
32330;BME280;18807;52.434;13.238;2023-02-10T12:00:11;103024.34;;;5.14;100.00
32330;BME280;18807;52.434;13.238;2023-02-10T12:08:02;103022.00;;;5.19;100.00
32330;BME280;18807;52.434;13.238;2023-02-10T12:15:49;103008.78;;;5.19;100.00
32330;BME280;18807;52.434;13.238;2023-02-10T12:23:52;103006.66;;;5.26;100.00
32330;BME280;18807;52.434;13.238;2023-02-10T12:31:39;103007.56;;;5.38;100.00
32330;BME280;18807;52.434;13.238;2023-02-10T12:39:21;103000.63;;;5.40;100.00
32330;BME280;18807;52.434;13.238;2023-02-10T12:47:06;103006.91;;;5.54;100.00
32330;BME280;18807;52.434;13.238;2023-02-10T12:54:47;103001.50;;;5.52;100.00
32330;BME280;18807;52.434;13.238;2023-02-10T13:02:27;102987.63;;;5.56;100.00
32330;BME280;18807;52.434;13.238;2023-02-10T13:10:13;102981.03;;;5.63;100.00
32330;BME280;18807;52.434;13.238;2023-02-10T13:17:51;102997.66;;;5.60;100.00
32330;BME280;18807;52.434;13.238;2023-02-10T13:25:33;102979.00;;;5.59;100.00
32330;BME280;18807;52.434;13.238;2023-02-10T13:33:17;102979.22;;;5.62;100.00
32330;BME280;18807;52.434;13.238;2023-02-10T13:40:55;102989.59;;;5.59;100.00
32330;BME280;18807;52.434;13.238;2023-02-10T13:48:54;102987.84;;;5.59;100.00
32330;BME280;18807;52.434;13.238;2023-02-10T13:56:31;102979.56;;;5.55;100.00
32330;BME280;18807;52.434;13.238;2023-02-10T14:04:26;102978.56;;;5.53;100.00
32330;BME280;18807;52.434;13.238;2023-02-10T14:12:03;102970.72;;;5.54;100.00
32330;BME280;18807;52.434;13.238;2023-02-10T14:19:41;102961.22;;;5.58;100.00
32330;BME280;18807;52.434;13.238;2023-02-10T14:27:17;102937.00;;;5.65;100.00
32330;BME280;18807;52.434;13.238;2023-02-10T14:34:55;102940.88;;;5.70;100.00
32330;BME280;18807;52.434;13.238;2023-02-10T14:42:31;102932.28;;;5.61;100.00
32330;BME280;18807;52.434;13.238;2023-02-10T14:50:21;102933.63;;;5.54;100.00
32330;BME280;18807;52.434;13.238;2023-02-10T14:58:02;102931.34;;;5.47;100.00
32330;BME280;18807;52.434;13.238;2023-02-10T15:05:44;102935.50;;;5.44;100.00
32330;BME280;18807;52.434;13.238;2023-02-10T15:13:23;102930.50;;;5.35;100.00
32330;BME280;18807;52.434;13.238;2023-02-10T15:21:03;102937.91;;;5.28;100.00
32330;BME280;18807;52.434;13.238;2023-02-10T15:28:37;102941.50;;;5.17;100.00
32330;BME280;18807;52.434;13.238;2023-02-10T15:36:20;102913.56;;;5.09;100.00
32330;BME280;18807;52.434;13.238;2023-02-10T15:43:55;102911.75;;;4.96;100.00
32330;BME280;18807;52.434;13.238;2023-02-10T15:51:30;102912.69;;;4.85;100.00
32330;BME280;18807;52.434;13.238;2023-02-10T15:59:09;102904.03;;;4.75;100.00
32330;BME280;18807;52.434;13.238;2023-02-10T16:06:47;102887.59;;;4.67;100.00
32330;BME280;18807;52.434;13.238;2023-02-10T16:14:22;102900.38;;;4.61;100.00
32330;BME280;18807;52.434;13.238;2023-02-10T16:21:57;102905.78;;;4.51;100.00
32330;BME280;18807;52.434;13.238;2023-02-10T16:29:31;102905.31;;;4.45;100.00
32330;BME280;18807;52.434;13.238;2023-02-10T16:37:12;102915.47;;;4.39;100.00
32330;BME280;18807;52.434;13.238;2023-02-10T16:44:50;102917.34;;;4.29;100.00
32330;BME280;18807;52.434;13.238;2023-02-10T16:52:27;102928.72;;;4.16;100.00
32330;BME280;18807;52.434;13.238;2023-02-10T17:00:02;102933.31;;;4.07;100.00
32330;BME280;18807;52.434;13.238;2023-02-10T17:07:38;102926.41;;;3.97;100.00
32330;BME280;18807;52.434;13.238;2023-02-10T17:15:13;102938.00;;;3.88;100.00
32330;BME280;18807;52.434;13.238;2023-02-10T17:22:49;102928.44;;;3.78;100.00
32330;BME280;18807;52.434;13.238;2023-02-10T17:30:24;102931.53;;;3.73;100.00
32330;BME280;18807;52.434;13.238;2023-02-10T17:37:59;102938.88;;;3.65;100.00
32330;BME280;18807;52.434;13.238;2023-02-10T17:45:48;102921.78;;;3.60;100.00
32330;BME280;18807;52.434;13.238;2023-02-10T17:53:24;102927.94;;;3.61;100.00
32330;BME280;18807;52.434;13.238;2023-02-10T18:00:58;102921.06;;;3.63;100.00
32330;BME280;18807;52.434;13.238;2023-02-10T18:08:34;102917.75;;;3.65;100.00
32330;BME280;18807;52.434;13.238;2023-02-10T18:16:09;102899.47;;;3.68;100.00
32330;BME280;18807;52.434;13.238;2023-02-10T18:23:45;102889.59;;;3.66;100.00
32330;BME280;18807;52.434;13.238;2023-02-10T18:31:19;102883.28;;;3.64;100.00
32330;BME280;18807;52.434;13.238;2023-02-10T18:38:55;102880.41;;;3.61;100.00
32330;BME280;18807;52.434;13.238;2023-02-10T18:46:28;102893.38;;;3.58;100.00
32330;BME280;18807;52.434;13.238;2023-02-10T18:54:04;102879.25;;;3.57;100.00
32330;BME280;18807;52.434;13.238;2023-02-10T19:01:38;102873.50;;;3.51;100.00
32330;BME280;18807;52.434;13.238;2023-02-10T19:09:14;102863.59;;;3.49;100.00
32330;BME280;18807;52.434;13.238;2023-02-10T19:16:48;102867.75;;;3.45;100.00
32330;BME280;18807;52.434;13.238;2023-02-10T19:24:24;102872.00;;;3.43;100.00
32330;BME280;18807;52.434;13.238;2023-02-10T19:31:58;102874.38;;;3.40;100.00
32330;BME280;18807;52.434;13.238;2023-02-10T19:39:34;102861.06;;;3.39;100.00
32330;BME280;18807;52.434;13.238;2023-02-10T19:47:07;102852.91;;;3.36;100.00
32330;BME280;18807;52.434;13.238;2023-02-10T19:54:43;102849.22;;;3.34;100.00
32330;BME280;18807;52.434;13.238;2023-02-10T20:02:17;102839.47;;;3.33;100.00
32330;BME280;18807;52.434;13.238;2023-02-10T20:09:53;102828.09;;;3.34;100.00
32330;BME280;18807;52.434;13.238;2023-02-10T20:17:29;102810.19;;;3.30;100.00
32330;BME280;18807;52.434;13.238;2023-02-10T20:25:05;102804.91;;;3.30;100.00
32330;BME280;18807;52.434;13.238;2023-02-10T20:32:38;102808.94;;;3.25;100.00
32330;BME280;18807;52.434;13.238;2023-02-10T20:40:14;102807.41;;;3.17;100.00
32330;BME280;18807;52.434;13.238;2023-02-10T20:47:48;102801.66;;;3.11;100.00
32330;BME280;18807;52.434;13.238;2023-02-10T20:55:23;102792.56;;;3.07;100.00
32330;BME280;18807;52.434;13.238;2023-02-10T21:02:58;102802.88;;;3.04;100.00
32330;BME280;18807;52.434;13.238;2023-02-10T21:10:36;102807.28;;;3.04;100.00
32330;BME280;18807;52.434;13.238;2023-02-10T21:18:12;102799.78;;;2.98;100.00
32330;BME280;18807;52.434;13.238;2023-02-10T21:25:47;102790.72;;;2.95;100.00
32330;BME280;18807;52.434;13.238;2023-02-10T21:33:23;102781.88;;;2.94;100.00
32330;BME280;18807;52.434;13.238;2023-02-10T21:41:03;102758.47;;;2.99;100.00
32330;BME280;18807;52.434;13.238;2023-02-10T21:48:37;102744.00;;;2.94;100.00
32330;BME280;18807;52.434;13.238;2023-02-10T21:56:14;102722.31;;;2.86;100.00
32330;BME280;18807;52.434;13.238;2023-02-10T22:03:48;102715.66;;;2.80;100.00
32330;BME280;18807;52.434;13.238;2023-02-10T22:11:24;102695.91;;;2.75;100.00
32330;BME280;18807;52.434;13.238;2023-02-10T22:18:58;102691.53;;;2.75;100.00
32330;BME280;18807;52.434;13.238;2023-02-10T22:26:33;102691.06;;;2.69;100.00
32330;BME280;18807;52.434;13.238;2023-02-10T22:34:07;102678.47;;;2.65;100.00
32330;BME280;18807;52.434;13.238;2023-02-10T22:41:43;102675.69;;;2.64;100.00
32330;BME280;18807;52.434;13.238;2023-02-10T22:49:17;102666.75;;;2.62;100.00
32330;BME280;18807;52.434;13.238;2023-02-10T22:56:52;102674.66;;;2.62;100.00
32330;BME280;18807;52.434;13.238;2023-02-10T23:04:26;102654.38;;;2.61;100.00
32330;BME280;18807;52.434;13.238;2023-02-10T23:12:02;102638.31;;;2.58;100.00
32330;BME280;18807;52.434;13.238;2023-02-10T23:19:36;102620.66;;;2.57;100.00
32330;BME280;18807;52.434;13.238;2023-02-10T23:27:11;102594.94;;;2.54;100.00
32330;BME280;18807;52.434;13.238;2023-02-10T23:34:45;102575.59;;;2.54;100.00
32330;BME280;18807;52.434;13.238;2023-02-10T23:42:21;102559.66;;;2.52;100.00
32330;BME280;18807;52.434;13.238;2023-02-10T23:49:55;102558.59;;;2.50;100.00
32330;BME280;18807;52.434;13.238;2023-02-10T23:57:30;102549.31;;;2.55;100.00
